sensor_id;sensor_type;location;lat;lon;timestamp;temperature;humidity
59923;DHT22;45778;51.142;3.732;2023-05-17T00:01:51;8.50;99.90
59923;DHT22;45778;51.142;3.732;2023-05-17T00:04:17;8.50;99.90
59923;DHT22;45778;51.142;3.732;2023-05-17T00:06:43;8.50;99.90
59923;DHT22;45778;51.142;3.732;2023-05-17T00:09:08;8.50;99.90
59923;DHT22;45778;51.142;3.732;2023-05-17T00:11:34;8.60;99.90
59923;DHT22;45778;51.142;3.732;2023-05-17T00:14:00;8.70;99.90
59923;DHT22;45778;51.142;3.732;2023-05-17T00:16:26;8.50;99.90
59923;DHT22;45778;51.142;3.732;2023-05-17T00:18:52;8.50;99.90
59923;DHT22;45778;51.142;3.732;2023-05-17T00:21:17;8.50;99.90
59923;DHT22;45778;51.142;3.732;2023-05-17T00:23:43;8.50;99.90
59923;DHT22;45778;51.142;3.732;2023-05-17T00:26:09;8.30;99.90
59923;DHT22;45778;51.142;3.732;2023-05-17T00:28:34;8.30;99.90
59923;DHT22;45778;51.142;3.732;2023-05-17T00:31:00;8.30;99.90
59923;DHT22;45778;51.142;3.732;2023-05-17T00:33:26;8.30;99.90
59923;DHT22;45778;51.142;3.732;2023-05-17T00:35:51;8.30;99.90
59923;DHT22;45778;51.142;3.732;2023-05-17T00:38:17;8.40;99.90
59923;DHT22;45778;51.142;3.732;2023-05-17T00:40:43;8.20;99.90
59923;DHT22;45778;51.142;3.732;2023-05-17T00:43:08;8.30;99.90
59923;DHT22;45778;51.142;3.732;2023-05-17T00:45:34;8.20;99.90
59923;DHT22;45778;51.142;3.732;2023-05-17T00:48:00;8.20;99.90
59923;DHT22;45778;51.142;3.732;2023-05-17T00:50:25;8.20;99.90
59923;DHT22;45778;51.142;3.732;2023-05-17T00:52:51;8.10;99.90
59923;DHT22;45778;51.142;3.732;2023-05-17T00:55:17;8.20;99.90
59923;DHT22;45778;51.142;3.732;2023-05-17T00:57:46;8.10;99.90
59923;DHT22;45778;51.142;3.732;2023-05-17T01:00:12;8.00;99.90
59923;DHT22;45778;51.142;3.732;2023-05-17T01:02:38;7.90;99.90
59923;DHT22;45778;51.142;3.732;2023-05-17T01:05:04;7.80;99.90
59923;DHT22;45778;51.142;3.732;2023-05-17T01:07:30;7.70;99.90
59923;DHT22;45778;51.142;3.732;2023-05-17T01:09:56;7.70;99.90
59923;DHT22;45778;51.142;3.732;2023-05-17T01:15:13;7.70;99.90
59923;DHT22;45778;51.142;3.732;2023-05-17T01:20:45;7.60;99.90
59923;DHT22;45778;51.142;3.732;2023-05-17T01:23:29;7.60;99.90
59923;DHT22;45778;51.142;3.732;2023-05-17T01:26:18;7.50;99.90
59923;DHT22;45778;51.142;3.732;2023-05-17T01:28:48;7.60;99.90
59923;DHT22;45778;51.142;3.732;2023-05-17T01:31:16;7.70;99.90
59923;DHT22;45778;51.142;3.732;2023-05-17T01:33:42;7.60;99.90
59923;DHT22;45778;51.142;3.732;2023-05-17T01:36:08;7.70;99.90
59923;DHT22;45778;51.142;3.732;2023-05-17T01:38:34;7.70;99.90
59923;DHT22;45778;51.142;3.732;2023-05-17T01:41:24;7.80;99.90
59923;DHT22;45778;51.142;3.732;2023-05-17T01:44:01;7.50;99.90
59923;DHT22;45778;51.142;3.732;2023-05-17T01:46:39;7.40;99.90
59923;DHT22;45778;51.142;3.732;2023-05-17T01:49:20;7.30;99.90
59923;DHT22;45778;51.142;3.732;2023-05-17T01:51:57;7.30;99.90
59923;DHT22;45778;51.142;3.732;2023-05-17T01:54:31;7.40;99.90
59923;DHT22;45778;51.142;3.732;2023-05-17T01:57:04;7.20;99.90
59923;DHT22;45778;51.142;3.732;2023-05-17T01:59:32;7.20;99.90
59923;DHT22;45778;51.142;3.732;2023-05-17T02:02:00;7.00;99.90
59923;DHT22;45778;51.142;3.732;2023-05-17T02:04:34;7.20;99.90
59923;DHT22;45778;51.142;3.732;2023-05-17T02:07:00;6.90;99.90
59923;DHT22;45778;51.142;3.732;2023-05-17T02:09:26;6.90;99.90
59923;DHT22;45778;51.142;3.732;2023-05-17T02:11:52;6.90;99.90
59923;DHT22;45778;51.142;3.732;2023-05-17T02:14:17;6.80;99.90
59923;DHT22;45778;51.142;3.732;2023-05-17T02:16:43;6.80;99.90
59923;DHT22;45778;51.142;3.732;2023-05-17T02:19:09;6.80;99.90
59923;DHT22;45778;51.142;3.732;2023-05-17T02:21:37;6.90;99.90
59923;DHT22;45778;51.142;3.732;2023-05-17T02:24:03;6.80;99.90
59923;DHT22;45778;51.142;3.732;2023-05-17T02:26:29;6.80;99.90
59923;DHT22;45778;51.142;3.732;2023-05-17T02:28:56;6.80;99.90
59923;DHT22;45778;51.142;3.732;2023-05-17T02:31:21;6.90;99.90
59923;DHT22;45778;51.142;3.732;2023-05-17T02:33:49;6.90;99.90
59923;DHT22;45778;51.142;3.732;2023-05-17T02:36:14;6.90;99.90
59923;DHT22;45778;51.142;3.732;2023-05-17T02:38:40;6.90;99.90
59923;DHT22;45778;51.142;3.732;2023-05-17T02:41:06;6.90;99.90
59923;DHT22;45778;51.142;3.732;2023-05-17T02:43:31;6.90;99.90
59923;DHT22;45778;51.142;3.732;2023-05-17T02:45:57;7.00;99.90
59923;DHT22;45778;51.142;3.732;2023-05-17T02:48:23;7.00;99.90
59923;DHT22;45778;51.142;3.732;2023-05-17T02:50:48;7.00;99.90
59923;DHT22;45778;51.142;3.732;2023-05-17T02:53:14;6.90;99.90
59923;DHT22;45778;51.142;3.732;2023-05-17T02:55:39;6.80;99.90
59923;DHT22;45778;51.142;3.732;2023-05-17T02:58:05;6.70;99.90
59923;DHT22;45778;51.142;3.732;2023-05-17T03:00:31;6.70;99.90
59923;DHT22;45778;51.142;3.732;2023-05-17T03:02:56;6.80;99.90
59923;DHT22;45778;51.142;3.732;2023-05-17T03:05:22;6.80;99.90
59923;DHT22;45778;51.142;3.732;2023-05-17T03:07:47;6.80;99.90
59923;DHT22;45778;51.142;3.732;2023-05-17T03:10:13;6.90;99.90
59923;DHT22;45778;51.142;3.732;2023-05-17T03:12:39;6.80;99.90
59923;DHT22;45778;51.142;3.732;2023-05-17T03:15:05;6.90;99.90
59923;DHT22;45778;51.142;3.732;2023-05-17T03:17:30;6.90;99.90
59923;DHT22;45778;51.142;3.732;2023-05-17T03:19:56;7.10;99.90
59923;DHT22;45778;51.142;3.732;2023-05-17T03:22:22;6.90;99.90
59923;DHT22;45778;51.142;3.732;2023-05-17T03:24:47;6.90;99.90
59923;DHT22;45778;51.142;3.732;2023-05-17T03:27:13;6.90;99.90
59923;DHT22;45778;51.142;3.732;2023-05-17T03:29:38;7.00;99.90
59923;DHT22;45778;51.142;3.732;2023-05-17T03:32:04;6.90;99.90
59923;DHT22;45778;51.142;3.732;2023-05-17T03:34:30;7.00;99.90
59923;DHT22;45778;51.142;3.732;2023-05-17T03:36:56;7.10;99.90
59923;DHT22;45778;51.142;3.732;2023-05-17T03:39:22;7.10;99.90
59923;DHT22;45778;51.142;3.732;2023-05-17T03:41:47;7.20;99.90
59923;DHT22;45778;51.142;3.732;2023-05-17T03:44:13;7.30;99.90
59923;DHT22;45778;51.142;3.732;2023-05-17T03:46:39;7.30;99.90
59923;DHT22;45778;51.142;3.732;2023-05-17T03:49:05;7.40;99.90
59923;DHT22;45778;51.142;3.732;2023-05-17T03:51:31;7.50;99.90
59923;DHT22;45778;51.142;3.732;2023-05-17T03:53:58;7.60;99.90
59923;DHT22;45778;51.142;3.732;2023-05-17T03:56:24;7.70;99.90
59923;DHT22;45778;51.142;3.732;2023-05-17T03:58:49;7.80;99.90
59923;DHT22;45778;51.142;3.732;2023-05-17T04:01:16;8.10;99.90
59923;DHT22;45778;51.142;3.732;2023-05-17T04:03:41;7.90;99.90
59923;DHT22;45778;51.142;3.732;2023-05-17T04:06:07;7.90;99.90
59923;DHT22;45778;51.142;3.732;2023-05-17T04:08:34;8.10;99.90
59923;DHT22;45778;51.142;3.732;2023-05-17T04:11:00;8.10;99.90
59923;DHT22;45778;51.142;3.732;2023-05-17T04:13:35;8.10;99.90
59923;DHT22;45778;51.142;3.732;2023-05-17T04:16:01;8.20;99.90
59923;DHT22;45778;51.142;3.732;2023-05-17T04:18:27;8.20;99.90
59923;DHT22;45778;51.142;3.732;2023-05-17T04:20:54;8.10;99.90
59923;DHT22;45778;51.142;3.732;2023-05-17T04:23:20;8.20;99.90
59923;DHT22;45778;51.142;3.732;2023-05-17T04:25:45;8.20;99.90
59923;DHT22;45778;51.142;3.732;2023-05-17T04:28:11;8.30;99.90
59923;DHT22;45778;51.142;3.732;2023-05-17T04:30:44;8.30;99.90
59923;DHT22;45778;51.142;3.732;2023-05-17T04:33:10;8.40;99.90
59923;DHT22;45778;51.142;3.732;2023-05-17T04:35:37;8.30;99.90
59923;DHT22;45778;51.142;3.732;2023-05-17T04:38:03;8.30;99.90
59923;DHT22;45778;51.142;3.732;2023-05-17T04:40:28;8.20;99.90
59923;DHT22;45778;51.142;3.732;2023-05-17T04:42:55;8.10;99.90
59923;DHT22;45778;51.142;3.732;2023-05-17T04:45:20;8.30;99.90
59923;DHT22;45778;51.142;3.732;2023-05-17T04:47:47;8.30;99.90
59923;DHT22;45778;51.142;3.732;2023-05-17T04:50:14;8.50;99.90
59923;DHT22;45778;51.142;3.732;2023-05-17T04:52:40;8.60;99.90
59923;DHT22;45778;51.142;3.732;2023-05-17T04:55:06;8.70;99.90
59923;DHT22;45778;51.142;3.732;2023-05-17T04:57:32;8.80;99.90
59923;DHT22;45778;51.142;3.732;2023-05-17T04:59:57;8.80;99.90
59923;DHT22;45778;51.142;3.732;2023-05-17T05:02:23;9.00;99.90
59923;DHT22;45778;51.142;3.732;2023-05-17T05:04:48;9.00;99.90
59923;DHT22;45778;51.142;3.732;2023-05-17T05:07:14;9.00;99.90
59923;DHT22;45778;51.142;3.732;2023-05-17T05:09:40;9.00;99.90
59923;DHT22;45778;51.142;3.732;2023-05-17T05:12:06;9.10;99.90
59923;DHT22;45778;51.142;3.732;2023-05-17T05:14:31;9.30;99.90
59923;DHT22;45778;51.142;3.732;2023-05-17T05:16:57;9.10;99.90
59923;DHT22;45778;51.142;3.732;2023-05-17T05:19:23;9.10;99.90
59923;DHT22;45778;51.142;3.732;2023-05-17T05:21:48;9.00;99.90
59923;DHT22;45778;51.142;3.732;2023-05-17T05:24:14;9.10;99.90
59923;DHT22;45778;51.142;3.732;2023-05-17T05:26:39;9.20;99.90
59923;DHT22;45778;51.142;3.732;2023-05-17T05:29:05;9.30;99.90
59923;DHT22;45778;51.142;3.732;2023-05-17T05:31:31;9.40;99.90
59923;DHT22;45778;51.142;3.732;2023-05-17T05:33:56;9.40;99.90
59923;DHT22;45778;51.142;3.732;2023-05-17T05:36:22;9.40;99.90
59923;DHT22;45778;51.142;3.732;2023-05-17T05:38:48;9.60;99.90
59923;DHT22;45778;51.142;3.732;2023-05-17T05:41:13;9.60;99.90
59923;DHT22;45778;51.142;3.732;2023-05-17T05:43:39;9.90;99.90
59923;DHT22;45778;51.142;3.732;2023-05-17T05:46:05;10.10;99.90
59923;DHT22;45778;51.142;3.732;2023-05-17T05:48:31;10.40;99.90
59923;DHT22;45778;51.142;3.732;2023-05-17T05:50:57;10.60;99.90
59923;DHT22;45778;51.142;3.732;2023-05-17T05:53:22;10.80;99.90
59923;DHT22;45778;51.142;3.732;2023-05-17T05:55:48;11.00;99.90
59923;DHT22;45778;51.142;3.732;2023-05-17T05:58:14;11.00;99.90
59923;DHT22;45778;51.142;3.732;2023-05-17T06:00:40;11.10;99.90
59923;DHT22;45778;51.142;3.732;2023-05-17T06:03:06;11.30;99.90
59923;DHT22;45778;51.142;3.732;2023-05-17T06:05:31;11.40;99.90
59923;DHT22;45778;51.142;3.732;2023-05-17T06:07:57;11.40;99.90
59923;DHT22;45778;51.142;3.732;2023-05-17T06:10:23;11.50;99.90
59923;DHT22;45778;51.142;3.732;2023-05-17T06:12:48;11.40;99.90
59923;DHT22;45778;51.142;3.732;2023-05-17T06:15:14;11.40;99.90
59923;DHT22;45778;51.142;3.732;2023-05-17T06:17:40;11.30;99.90
59923;DHT22;45778;51.142;3.732;2023-05-17T06:20:06;11.40;99.90
59923;DHT22;45778;51.142;3.732;2023-05-17T06:22:32;11.60;99.90
59923;DHT22;45778;51.142;3.732;2023-05-17T06:24:57;12.00;99.90
59923;DHT22;45778;51.142;3.732;2023-05-17T06:27:23;12.30;99.90
59923;DHT22;45778;51.142;3.732;2023-05-17T06:29:49;12.40;99.90
59923;DHT22;45778;51.142;3.732;2023-05-17T06:32:15;12.50;99.90
59923;DHT22;45778;51.142;3.732;2023-05-17T06:34:41;12.80;99.90
59923;DHT22;45778;51.142;3.732;2023-05-17T06:37:06;12.90;99.90
59923;DHT22;45778;51.142;3.732;2023-05-17T06:39:32;12.90;99.90
59923;DHT22;45778;51.142;3.732;2023-05-17T06:41:57;13.00;99.90
59923;DHT22;45778;51.142;3.732;2023-05-17T06:44:23;12.90;99.90
59923;DHT22;45778;51.142;3.732;2023-05-17T06:46:49;13.10;99.90
59923;DHT22;45778;51.142;3.732;2023-05-17T06:49:14;13.40;99.90
59923;DHT22;45778;51.142;3.732;2023-05-17T06:51:40;13.40;99.90
59923;DHT22;45778;51.142;3.732;2023-05-17T06:54:06;13.40;99.90
59923;DHT22;45778;51.142;3.732;2023-05-17T06:56:31;13.00;99.90
59923;DHT22;45778;51.142;3.732;2023-05-17T06:58:57;13.10;99.90
59923;DHT22;45778;51.142;3.732;2023-05-17T07:01:23;13.20;99.90
59923;DHT22;45778;51.142;3.732;2023-05-17T07:03:50;13.20;99.90
59923;DHT22;45778;51.142;3.732;2023-05-17T07:06:15;13.30;99.90
59923;DHT22;45778;51.142;3.732;2023-05-17T07:08:41;13.20;99.90
59923;DHT22;45778;51.142;3.732;2023-05-17T07:11:07;13.10;99.90
59923;DHT22;45778;51.142;3.732;2023-05-17T07:13:32;13.10;99.90
59923;DHT22;45778;51.142;3.732;2023-05-17T07:15:58;13.20;99.90
59923;DHT22;45778;51.142;3.732;2023-05-17T07:18:24;13.50;99.90
59923;DHT22;45778;51.142;3.732;2023-05-17T07:20:50;13.60;99.90
59923;DHT22;45778;51.142;3.732;2023-05-17T07:23:16;13.70;99.90
59923;DHT22;45778;51.142;3.732;2023-05-17T07:25:42;13.90;99.90
59923;DHT22;45778;51.142;3.732;2023-05-17T07:28:07;14.00;99.90
59923;DHT22;45778;51.142;3.732;2023-05-17T07:30:33;14.10;99.90
59923;DHT22;45778;51.142;3.732;2023-05-17T07:32:59;13.80;99.90
59923;DHT22;45778;51.142;3.732;2023-05-17T07:35:25;13.70;99.90
59923;DHT22;45778;51.142;3.732;2023-05-17T07:37:50;13.80;99.90
59923;DHT22;45778;51.142;3.732;2023-05-17T07:40:16;14.10;99.90
59923;DHT22;45778;51.142;3.732;2023-05-17T07:42:42;14.40;99.90
59923;DHT22;45778;51.142;3.732;2023-05-17T07:45:08;14.40;99.90
59923;DHT22;45778;51.142;3.732;2023-05-17T07:47:34;14.30;99.90
59923;DHT22;45778;51.142;3.732;2023-05-17T07:50:00;14.40;99.90
59923;DHT22;45778;51.142;3.732;2023-05-17T07:52:25;14.50;99.90
59923;DHT22;45778;51.142;3.732;2023-05-17T07:54:51;14.60;99.90
59923;DHT22;45778;51.142;3.732;2023-05-17T07:57:16;14.90;99.90
59923;DHT22;45778;51.142;3.732;2023-05-17T07:59:42;15.20;99.90
59923;DHT22;45778;51.142;3.732;2023-05-17T08:02:08;15.20;99.90
59923;DHT22;45778;51.142;3.732;2023-05-17T08:04:34;14.80;99.90
59923;DHT22;45778;51.142;3.732;2023-05-17T08:07:00;14.90;99.90
59923;DHT22;45778;51.142;3.732;2023-05-17T08:09:26;14.60;99.90
59923;DHT22;45778;51.142;3.732;2023-05-17T08:11:52;14.60;99.90
59923;DHT22;45778;51.142;3.732;2023-05-17T08:14:20;14.70;99.90
59923;DHT22;45778;51.142;3.732;2023-05-17T08:16:46;14.50;99.90
59923;DHT22;45778;51.142;3.732;2023-05-17T08:19:12;14.20;99.90
59923;DHT22;45778;51.142;3.732;2023-05-17T08:21:40;13.80;99.90
59923;DHT22;45778;51.142;3.732;2023-05-17T08:24:06;13.90;99.90
59923;DHT22;45778;51.142;3.732;2023-05-17T08:26:32;14.30;99.90
59923;DHT22;45778;51.142;3.732;2023-05-17T08:28:58;14.60;99.90
59923;DHT22;45778;51.142;3.732;2023-05-17T08:31:23;14.70;99.90
59923;DHT22;45778;51.142;3.732;2023-05-17T08:33:49;14.70;99.90
59923;DHT22;45778;51.142;3.732;2023-05-17T08:36:15;14.90;99.90
59923;DHT22;45778;51.142;3.732;2023-05-17T08:38:41;14.90;99.90
59923;DHT22;45778;51.142;3.732;2023-05-17T08:41:08;15.10;99.90
59923;DHT22;45778;51.142;3.732;2023-05-17T08:43:34;15.10;99.90
59923;DHT22;45778;51.142;3.732;2023-05-17T08:46:00;15.50;99.90
59923;DHT22;45778;51.142;3.732;2023-05-17T08:48:28;15.90;99.90
59923;DHT22;45778;51.142;3.732;2023-05-17T08:50:57;16.30;99.90
59923;DHT22;45778;51.142;3.732;2023-05-17T08:53:24;16.00;99.90
59923;DHT22;45778;51.142;3.732;2023-05-17T08:55:53;15.40;99.90
59923;DHT22;45778;51.142;3.732;2023-05-17T08:58:26;15.30;99.90
59923;DHT22;45778;51.142;3.732;2023-05-17T09:00:55;15.40;99.90
59923;DHT22;45778;51.142;3.732;2023-05-17T09:03:22;15.20;99.90
59923;DHT22;45778;51.142;3.732;2023-05-17T09:05:52;15.00;99.90
59923;DHT22;45778;51.142;3.732;2023-05-17T09:08:21;15.00;99.90
59923;DHT22;45778;51.142;3.732;2023-05-17T09:10:48;15.10;99.90
59923;DHT22;45778;51.142;3.732;2023-05-17T09:13:14;15.40;99.90
59923;DHT22;45778;51.142;3.732;2023-05-17T09:15:44;15.70;99.90
59923;DHT22;45778;51.142;3.732;2023-05-17T09:18:11;15.80;99.90
59923;DHT22;45778;51.142;3.732;2023-05-17T09:20:38;16.00;99.90
59923;DHT22;45778;51.142;3.732;2023-05-17T09:23:05;15.90;99.90
59923;DHT22;45778;51.142;3.732;2023-05-17T09:25:32;15.40;99.90
59923;DHT22;45778;51.142;3.732;2023-05-17T09:28:06;15.50;99.90
59923;DHT22;45778;51.142;3.732;2023-05-17T09:30:36;15.50;99.90
59923;DHT22;45778;51.142;3.732;2023-05-17T09:33:07;15.40;99.90
59923;DHT22;45778;51.142;3.732;2023-05-17T09:35:34;15.40;99.10
59923;DHT22;45778;51.142;3.732;2023-05-17T09:40:29;16.00;98.30
59923;DHT22;45778;51.142;3.732;2023-05-17T09:42:54;16.00;95.90
59923;DHT22;45778;51.142;3.732;2023-05-17T09:45:21;15.70;96.90
59923;DHT22;45778;51.142;3.732;2023-05-17T09:47:48;15.40;97.10
59923;DHT22;45778;51.142;3.732;2023-05-17T09:50:20;15.40;97.70
59923;DHT22;45778;51.142;3.732;2023-05-17T09:52:46;15.50;98.80
59923;DHT22;45778;51.142;3.732;2023-05-17T09:55:12;15.60;98.80
59923;DHT22;45778;51.142;3.732;2023-05-17T09:57:39;15.70;98.30
59923;DHT22;45778;51.142;3.732;2023-05-17T10:00:08;15.80;99.00
59923;DHT22;45778;51.142;3.732;2023-05-17T10:02:36;15.70;98.80
59923;DHT22;45778;51.142;3.732;2023-05-17T10:05:09;15.80;99.10
59923;DHT22;45778;51.142;3.732;2023-05-17T10:07:37;15.70;99.00
59923;DHT22;45778;51.142;3.732;2023-05-17T10:10:04;15.70;99.30
59923;DHT22;45778;51.142;3.732;2023-05-17T10:12:32;15.90;98.40
59923;DHT22;45778;51.142;3.732;2023-05-17T10:15:03;16.00;98.50
59923;DHT22;45778;51.142;3.732;2023-05-17T10:17:30;16.10;98.70
59923;DHT22;45778;51.142;3.732;2023-05-17T10:19:57;16.40;99.30
59923;DHT22;45778;51.142;3.732;2023-05-17T10:22:23;16.60;98.20
59923;DHT22;45778;51.142;3.732;2023-05-17T10:24:49;16.50;98.60
59923;DHT22;45778;51.142;3.732;2023-05-17T10:27:16;16.10;98.10
59923;DHT22;45778;51.142;3.732;2023-05-17T10:29:42;16.10;99.40
59923;DHT22;45778;51.142;3.732;2023-05-17T10:32:08;16.00;97.50
59923;DHT22;45778;51.142;3.732;2023-05-17T10:34:38;16.10;98.30
59923;DHT22;45778;51.142;3.732;2023-05-17T10:37:04;16.30;97.00
59923;DHT22;45778;51.142;3.732;2023-05-17T10:39:32;16.10;98.60
59923;DHT22;45778;51.142;3.732;2023-05-17T10:42:01;16.40;98.50
59923;DHT22;45778;51.142;3.732;2023-05-17T10:44:31;17.00;98.30
59923;DHT22;45778;51.142;3.732;2023-05-17T10:46:58;17.50;97.60
59923;DHT22;45778;51.142;3.732;2023-05-17T10:49:29;17.50;96.00
59923;DHT22;45778;51.142;3.732;2023-05-17T10:51:57;17.90;96.50
59923;DHT22;45778;51.142;3.732;2023-05-17T10:54:34;17.90;95.80
59923;DHT22;45778;51.142;3.732;2023-05-17T10:57:04;17.30;94.90
59923;DHT22;45778;51.142;3.732;2023-05-17T10:59:31;17.20;96.00
59923;DHT22;45778;51.142;3.732;2023-05-17T11:04:35;17.70;94.80
59923;DHT22;45778;51.142;3.732;2023-05-17T11:09:48;17.20;95.70
59923;DHT22;45778;51.142;3.732;2023-05-17T11:12:15;17.70;95.90
59923;DHT22;45778;51.142;3.732;2023-05-17T11:15:05;18.20;96.10
59923;DHT22;45778;51.142;3.732;2023-05-17T11:17:45;18.80;94.00
59923;DHT22;45778;51.142;3.732;2023-05-17T11:25:20;18.90;92.70
59923;DHT22;45778;51.142;3.732;2023-05-17T11:27:47;18.60;92.80
59923;DHT22;45778;51.142;3.732;2023-05-17T11:32:53;17.10;94.00
59923;DHT22;45778;51.142;3.732;2023-05-17T11:35:23;17.10;94.60
59923;DHT22;45778;51.142;3.732;2023-05-17T11:37:52;17.10;94.10
59923;DHT22;45778;51.142;3.732;2023-05-17T11:40:27;17.30;94.50
59923;DHT22;45778;51.142;3.732;2023-05-17T11:45:52;17.80;93.60
59923;DHT22;45778;51.142;3.732;2023-05-17T11:48:20;18.10;93.00
59923;DHT22;45778;51.142;3.732;2023-05-17T11:50:47;18.30;92.90
59923;DHT22;45778;51.142;3.732;2023-05-17T11:53:14;18.20;93.30
59923;DHT22;45778;51.142;3.732;2023-05-17T11:55:48;17.90;93.50
59923;DHT22;45778;51.142;3.732;2023-05-17T11:58:19;17.60;92.70
59923;DHT22;45778;51.142;3.732;2023-05-17T12:00:50;18.30;94.00
59923;DHT22;45778;51.142;3.732;2023-05-17T12:03:32;18.90;91.30
59923;DHT22;45778;51.142;3.732;2023-05-17T12:06:09;19.30;91.00
59923;DHT22;45778;51.142;3.732;2023-05-17T12:08:38;19.10;90.20
59923;DHT22;45778;51.142;3.732;2023-05-17T12:11:06;18.90;89.50
59923;DHT22;45778;51.142;3.732;2023-05-17T12:13:33;18.70;90.50
59923;DHT22;45778;51.142;3.732;2023-05-17T12:16:02;19.00;90.20
59923;DHT22;45778;51.142;3.732;2023-05-17T12:18:44;19.20;90.30
59923;DHT22;45778;51.142;3.732;2023-05-17T12:21:13;18.50;90.70
59923;DHT22;45778;51.142;3.732;2023-05-17T12:23:46;18.30;91.60
59923;DHT22;45778;51.142;3.732;2023-05-17T12:26:12;19.00;91.30
59923;DHT22;45778;51.142;3.732;2023-05-17T12:28:41;18.80;90.90
59923;DHT22;45778;51.142;3.732;2023-05-17T12:31:13;19.40;90.10
59923;DHT22;45778;51.142;3.732;2023-05-17T12:33:42;20.10;88.70
59923;DHT22;45778;51.142;3.732;2023-05-17T12:36:10;20.20;90.00
59923;DHT22;45778;51.142;3.732;2023-05-17T12:38:39;21.40;84.20
59923;DHT22;45778;51.142;3.732;2023-05-17T12:41:07;21.00;83.90
59923;DHT22;45778;51.142;3.732;2023-05-17T12:43:34;21.20;81.30
59923;DHT22;45778;51.142;3.732;2023-05-17T12:46:16;21.30;84.00
59923;DHT22;45778;51.142;3.732;2023-05-17T12:48:46;22.30;81.70
59923;DHT22;45778;51.142;3.732;2023-05-17T12:51:16;22.40;82.30
59923;DHT22;45778;51.142;3.732;2023-05-17T12:53:44;23.40;79.40
59923;DHT22;45778;51.142;3.732;2023-05-17T12:56:23;23.90;76.00
59923;DHT22;45778;51.142;3.732;2023-05-17T12:59:14;24.20;76.10
59923;DHT22;45778;51.142;3.732;2023-05-17T13:01:45;24.10;74.50
59923;DHT22;45778;51.142;3.732;2023-05-17T13:04:11;24.60;73.30
59923;DHT22;45778;51.142;3.732;2023-05-17T13:09:14;25.20;70.50
59923;DHT22;45778;51.142;3.732;2023-05-17T13:11:54;25.90;67.00
59923;DHT22;45778;51.142;3.732;2023-05-17T13:17:03;24.60;67.50
59923;DHT22;45778;51.142;3.732;2023-05-17T13:19:28;24.10;68.00
59923;DHT22;45778;51.142;3.732;2023-05-17T13:21:54;25.00;66.20
59923;DHT22;45778;51.142;3.732;2023-05-17T13:24:20;25.50;65.80
59923;DHT22;45778;51.142;3.732;2023-05-17T13:26:46;26.70;64.10
59923;DHT22;45778;51.142;3.732;2023-05-17T13:29:11;26.70;63.00
59923;DHT22;45778;51.142;3.732;2023-05-17T13:31:37;25.60;63.50
59923;DHT22;45778;51.142;3.732;2023-05-17T13:34:02;25.80;64.20
59923;DHT22;45778;51.142;3.732;2023-05-17T13:36:28;24.40;65.30
59923;DHT22;45778;51.142;3.732;2023-05-17T13:38:54;24.90;65.90
59923;DHT22;45778;51.142;3.732;2023-05-17T13:41:21;26.00;64.50
59923;DHT22;45778;51.142;3.732;2023-05-17T13:43:47;26.90;62.60
59923;DHT22;45778;51.142;3.732;2023-05-17T13:46:12;27.00;62.10
59923;DHT22;45778;51.142;3.732;2023-05-17T13:48:38;27.60;60.90
59923;DHT22;45778;51.142;3.732;2023-05-17T13:51:04;27.50;62.20
59923;DHT22;45778;51.142;3.732;2023-05-17T13:53:29;25.70;61.60
59923;DHT22;45778;51.142;3.732;2023-05-17T13:55:55;25.60;63.00
59923;DHT22;45778;51.142;3.732;2023-05-17T13:58:21;25.50;63.10
59923;DHT22;45778;51.142;3.732;2023-05-17T14:00:46;25.50;62.30
59923;DHT22;45778;51.142;3.732;2023-05-17T14:03:12;25.80;61.90
59923;DHT22;45778;51.142;3.732;2023-05-17T14:05:39;25.90;62.20
59923;DHT22;45778;51.142;3.732;2023-05-17T14:08:05;24.70;61.80
59923;DHT22;45778;51.142;3.732;2023-05-17T14:10:32;25.40;62.00
59923;DHT22;45778;51.142;3.732;2023-05-17T14:12:57;25.90;62.40
59923;DHT22;45778;51.142;3.732;2023-05-17T14:15:23;26.70;61.20
59923;DHT22;45778;51.142;3.732;2023-05-17T14:17:49;25.50;61.80
59923;DHT22;45778;51.142;3.732;2023-05-17T14:20:15;25.20;62.80
59923;DHT22;45778;51.142;3.732;2023-05-17T14:22:41;26.00;62.30
59923;DHT22;45778;51.142;3.732;2023-05-17T14:25:07;26.50;61.20
59923;DHT22;45778;51.142;3.732;2023-05-17T14:27:33;27.40;59.90
59923;DHT22;45778;51.142;3.732;2023-05-17T14:29:59;28.90;60.00
59923;DHT22;45778;51.142;3.732;2023-05-17T14:32:26;29.20;58.20
59923;DHT22;45778;51.142;3.732;2023-05-17T14:34:52;30.10;57.20
59923;DHT22;45778;51.142;3.732;2023-05-17T14:37:17;30.60;55.80
59923;DHT22;45778;51.142;3.732;2023-05-17T14:39:43;30.00;54.80
59923;DHT22;45778;51.142;3.732;2023-05-17T14:42:09;29.20;55.00
59923;DHT22;45778;51.142;3.732;2023-05-17T14:44:34;28.10;56.10
59923;DHT22;45778;51.142;3.732;2023-05-17T14:47:05;25.80;57.70
59923;DHT22;45778;51.142;3.732;2023-05-17T14:49:31;24.10;59.80
59923;DHT22;45778;51.142;3.732;2023-05-17T14:51:57;24.20;61.50
59923;DHT22;45778;51.142;3.732;2023-05-17T14:54:22;24.60;60.10
59923;DHT22;45778;51.142;3.732;2023-05-17T14:56:50;24.00;61.30
59923;DHT22;45778;51.142;3.732;2023-05-17T14:59:16;23.90;61.30
59923;DHT22;45778;51.142;3.732;2023-05-17T15:01:42;23.80;61.70
59923;DHT22;45778;51.142;3.732;2023-05-17T15:04:07;23.40;63.50
59923;DHT22;45778;51.142;3.732;2023-05-17T15:06:34;25.00;60.80
59923;DHT22;45778;51.142;3.732;2023-05-17T15:09:00;26.60;59.70
59923;DHT22;45778;51.142;3.732;2023-05-17T15:11:28;26.80;58.80
59923;DHT22;45778;51.142;3.732;2023-05-17T15:13:54;27.50;59.40
59923;DHT22;45778;51.142;3.732;2023-05-17T15:16:20;27.70;57.70
59923;DHT22;45778;51.142;3.732;2023-05-17T15:18:46;27.30;58.30
59923;DHT22;45778;51.142;3.732;2023-05-17T15:21:12;27.10;58.10
59923;DHT22;45778;51.142;3.732;2023-05-17T15:23:38;26.10;59.20
59923;DHT22;45778;51.142;3.732;2023-05-17T15:26:03;25.40;59.20
59923;DHT22;45778;51.142;3.732;2023-05-17T15:28:29;24.20;62.10
59923;DHT22;45778;51.142;3.732;2023-05-17T15:31:02;24.20;61.50
59923;DHT22;45778;51.142;3.732;2023-05-17T15:33:31;22.50;64.50
59923;DHT22;45778;51.142;3.732;2023-05-17T15:35:57;23.80;63.40
59923;DHT22;45778;51.142;3.732;2023-05-17T15:38:22;24.00;62.20
59923;DHT22;45778;51.142;3.732;2023-05-17T15:41:00;23.50;63.00
59923;DHT22;45778;51.142;3.732;2023-05-17T15:43:27;22.40;64.80
59923;DHT22;45778;51.142;3.732;2023-05-17T15:45:52;23.50;63.70
59923;DHT22;45778;51.142;3.732;2023-05-17T15:48:18;23.80;62.40
59923;DHT22;45778;51.142;3.732;2023-05-17T15:50:43;25.10;62.10
59923;DHT22;45778;51.142;3.732;2023-05-17T15:53:09;25.80;61.20
59923;DHT22;45778;51.142;3.732;2023-05-17T15:55:35;26.90;57.40
59923;DHT22;45778;51.142;3.732;2023-05-17T15:58:00;27.70;57.70
59923;DHT22;45778;51.142;3.732;2023-05-17T16:00:26;27.80;56.40
59923;DHT22;45778;51.142;3.732;2023-05-17T16:02:52;29.00;56.10
59923;DHT22;45778;51.142;3.732;2023-05-17T16:05:17;25.60;58.20
59923;DHT22;45778;51.142;3.732;2023-05-17T16:07:43;25.40;60.00